createdAt,value
2023-05-10T00:01:35.451Z,99.90
2023-05-10T00:04:02.442Z,99.90
2023-05-10T00:06:29.436Z,99.90
2023-05-10T00:08:56.453Z,99.90
2023-05-10T00:11:23.444Z,99.90
2023-05-10T00:13:50.533Z,99.90
2023-05-10T00:16:17.537Z,99.90
2023-05-10T00:18:44.561Z,99.90
2023-05-10T00:21:11.539Z,99.90
2023-05-10T00:23:38.723Z,99.90
2023-05-10T00:26:05.800Z,99.90
2023-05-10T00:28:32.921Z,99.90
2023-05-10T00:30:59.959Z,99.90
2023-05-10T00:33:26.913Z,99.90
2023-05-10T00:35:53.924Z,99.90
2023-05-10T00:38:20.912Z,99.90
2023-05-10T00:40:48.254Z,99.90
2023-05-10T00:43:15.185Z,99.90
2023-05-10T00:45:42.677Z,99.90
2023-05-10T00:48:10.165Z,99.90
2023-05-10T00:50:37.424Z,99.90
2023-05-10T00:53:05.208Z,99.90
2023-05-10T00:55:32.659Z,99.90
2023-05-10T00:57:59.673Z,99.90
2023-05-10T01:00:26.975Z,99.90
2023-05-10T01:02:55.481Z,99.90
2023-05-10T01:05:23.086Z,99.90
2023-05-10T01:07:50.069Z,99.90
2023-05-10T01:10:18.158Z,99.90
2023-05-10T01:12:48.318Z,99.90
2023-05-10T01:15:17.452Z,99.90
2023-05-10T01:17:46.502Z,99.90
2023-05-10T01:20:16.023Z,99.90
2023-05-10T01:23:04.601Z,99.90
2023-05-10T01:25:50.294Z,99.90
2023-05-10T01:28:44.883Z,99.90
2023-05-10T01:31:31.302Z,99.90
2023-05-10T01:34:08.060Z,99.90
2023-05-10T01:36:51.902Z,99.90
2023-05-10T01:39:28.460Z,99.90
2023-05-10T01:42:37.143Z,99.90
2023-05-10T01:45:09.325Z,99.90
2023-05-10T01:47:43.123Z,99.90
2023-05-10T01:50:20.838Z,99.90
2023-05-10T01:52:55.907Z,99.90
2023-05-10T01:55:26.224Z,99.90
2023-05-10T01:58:03.243Z,99.90
2023-05-10T02:00:32.353Z,99.90
2023-05-10T02:03:02.616Z,99.90
2023-05-10T02:05:31.580Z,99.90
2023-05-10T02:08:02.479Z,99.90
2023-05-10T02:10:30.945Z,99.90
2023-05-10T02:13:01.414Z,99.90
2023-05-10T02:15:29.889Z,99.90
2023-05-10T02:17:58.642Z,99.90
2023-05-10T02:20:28.223Z,99.90
2023-05-10T02:22:58.062Z,99.90
2023-05-10T02:25:26.794Z,99.90
2023-05-10T02:27:57.131Z,99.90
2023-05-10T02:30:25.004Z,99.90
2023-05-10T02:32:54.002Z,99.90
2023-05-10T02:35:21.926Z,99.90
2023-05-10T02:37:50.079Z,99.90
2023-05-10T02:40:18.945Z,99.90
2023-05-10T02:42:48.558Z,99.90
2023-05-10T02:45:20.619Z,99.90
2023-05-10T02:47:48.178Z,99.90
2023-05-10T02:50:16.130Z,99.90
2023-05-10T02:52:55.058Z,99.90
2023-05-10T02:55:33.656Z,99.90
2023-05-10T02:58:02.315Z,99.90
2023-05-10T03:00:29.681Z,99.90
2023-05-10T03:02:57.064Z,99.90
2023-05-10T03:05:24.498Z,99.90
2023-05-10T03:07:52.564Z,99.90
2023-05-10T03:10:20.360Z,99.90
2023-05-10T03:13:05.480Z,99.90
2023-05-10T03:16:19.936Z,99.90
2023-05-10T03:18:55.101Z,99.90
2023-05-10T03:21:27.227Z,99.90
2023-05-10T03:24:04.803Z,99.90
2023-05-10T03:26:33.095Z,99.90
2023-05-10T03:29:00.918Z,99.90
2023-05-10T03:31:28.234Z,99.90
2023-05-10T03:33:55.315Z,99.90
2023-05-10T03:36:22.377Z,99.90
2023-05-10T03:38:49.338Z,99.90
2023-05-10T03:41:16.392Z,99.90
2023-05-10T03:43:43.363Z,99.90
2023-05-10T03:46:10.868Z,99.90
2023-05-10T03:48:38.016Z,99.90
2023-05-10T03:51:05.008Z,99.90
2023-05-10T03:53:31.951Z,99.90
2023-05-10T03:55:58.911Z,99.90
2023-05-10T03:58:26.066Z,99.90
2023-05-10T04:00:53.478Z,99.90
2023-05-10T04:03:21.623Z,99.90
2023-05-10T04:05:48.680Z,99.90
2023-05-10T04:08:17.562Z,99.90
2023-05-10T04:10:44.742Z,99.90
2023-05-10T04:13:12.407Z,99.90
2023-05-10T04:15:39.360Z,99.90
2023-05-10T04:18:08.711Z,99.90
2023-05-10T04:20:36.013Z,99.90
2023-05-10T04:23:02.979Z,99.90
2023-05-10T04:25:30.021Z,99.90
2023-05-10T04:27:56.994Z,99.90
2023-05-10T04:30:24.030Z,99.90
2023-05-10T04:32:51.169Z,99.90
2023-05-10T04:35:18.321Z,99.90
2023-05-10T04:37:45.255Z,99.90
2023-05-10T04:40:12.844Z,99.90
2023-05-10T04:42:42.556Z,99.90
2023-05-10T04:45:10.749Z,99.90
2023-05-10T04:47:38.338Z,99.90
2023-05-10T04:50:06.479Z,99.90
2023-05-10T04:52:33.566Z,99.90
2023-05-10T04:55:00.740Z,99.90
2023-05-10T04:57:27.680Z,99.90
2023-05-10T04:59:54.646Z,99.90
2023-05-10T05:02:21.615Z,99.90
2023-05-10T05:04:48.619Z,99.90
2023-05-10T05:07:15.926Z,99.90
2023-05-10T05:09:42.911Z,99.90
2023-05-10T05:12:14.955Z,99.90
2023-05-10T05:14:42.451Z,99.90
2023-05-10T05:17:09.570Z,99.90
2023-05-10T05:19:37.169Z,99.90
2023-05-10T05:22:04.200Z,99.90
2023-05-10T05:24:36.972Z,99.90
2023-05-10T05:27:03.948Z,99.90
2023-05-10T05:29:30.994Z,99.90
2023-05-10T05:31:58.000Z,99.90
2023-05-10T05:34:25.410Z,99.90
2023-05-10T05:36:52.871Z,99.90
2023-05-10T05:39:19.917Z,99.90
2023-05-10T05:41:47.767Z,99.90
2023-05-10T05:44:14.760Z,99.90
2023-05-10T05:46:41.796Z,99.90
2023-05-10T05:49:08.828Z,99.90
2023-05-10T05:51:36.664Z,99.90
2023-05-10T05:54:05.479Z,99.90
2023-05-10T05:56:32.510Z,99.90
2023-05-10T05:58:59.524Z,99.90
2023-05-10T06:01:26.540Z,99.90
2023-05-10T06:03:53.733Z,99.90
2023-05-10T06:06:20.866Z,99.90
2023-05-10T06:08:47.896Z,99.90
2023-05-10T06:11:14.881Z,99.90
2023-05-10T06:13:43.371Z,99.90
2023-05-10T06:16:10.441Z,99.90
2023-05-10T06:18:37.480Z,99.90
2023-05-10T06:21:04.535Z,99.90
2023-05-10T06:23:31.531Z,99.90
2023-05-10T06:25:58.518Z,99.90
2023-05-10T06:28:25.482Z,99.90
2023-05-10T06:30:52.452Z,99.90
2023-05-10T06:33:19.516Z,99.90
2023-05-10T06:35:46.485Z,99.90
2023-05-10T06:38:13.536Z,99.90
2023-05-10T06:40:43.766Z,99.90
2023-05-10T06:43:11.466Z,99.90
2023-05-10T06:45:38.458Z,99.90
2023-05-10T06:48:05.649Z,99.90
2023-05-10T06:50:32.708Z,99.90
2023-05-10T06:52:59.895Z,99.90
2023-05-10T06:55:27.497Z,99.90
2023-05-10T06:57:55.164Z,99.90
2023-05-10T07:00:22.203Z,99.90
2023-05-10T07:02:49.183Z,99.90
2023-05-10T07:05:16.478Z,99.90
2023-05-10T07:07:43.659Z,99.90
2023-05-10T07:10:10.986Z,99.90
2023-05-10T07:12:38.124Z,99.90
2023-05-10T07:15:05.972Z,99.90
2023-05-10T07:17:34.618Z,99.90
2023-05-10T07:20:02.650Z,99.90
2023-05-10T07:22:29.565Z,99.90
2023-05-10T07:24:56.606Z,99.90
2023-05-10T07:27:23.601Z,99.90
2023-05-10T07:29:50.604Z,99.90
2023-05-10T07:32:17.686Z,99.90
2023-05-10T07:34:44.769Z,99.90
2023-05-10T07:37:11.804Z,99.90
2023-05-10T07:39:38.811Z,99.90
2023-05-10T07:42:06.983Z,99.90
2023-05-10T07:44:34.007Z,99.90
2023-05-10T07:47:01.085Z,99.90
2023-05-10T07:49:28.069Z,99.90
2023-05-10T07:51:55.055Z,99.90
2023-05-10T07:54:22.691Z,99.90
2023-05-10T07:56:49.668Z,99.90
2023-05-10T07:59:18.188Z,99.90
2023-05-10T08:01:45.383Z,99.90
2023-05-10T08:04:12.917Z,99.90
2023-05-10T08:06:41.646Z,99.90
2023-05-10T08:09:09.528Z,99.90
2023-05-10T08:11:36.637Z,99.90
2023-05-10T08:14:03.814Z,99.90
2023-05-10T08:16:30.980Z,99.90
2023-05-10T08:18:58.114Z,99.90
2023-05-10T08:21:25.269Z,99.90
2023-05-10T08:23:52.399Z,99.90
2023-05-10T08:26:19.481Z,99.90
2023-05-10T08:28:46.443Z,99.90
2023-05-10T08:31:13.745Z,99.90
2023-05-10T08:33:42.329Z,99.90
2023-05-10T08:36:10.910Z,99.90
2023-05-10T08:38:39.110Z,99.90
2023-05-10T08:41:07.239Z,99.90
2023-05-10T08:43:37.018Z,99.90
2023-05-10T08:46:08.054Z,99.90
2023-05-10T08:48:36.148Z,99.90
2023-05-10T08:51:04.701Z,99.90
2023-05-10T08:53:34.305Z,99.90
2023-05-10T08:56:03.480Z,99.90
2023-05-10T08:58:30.722Z,99.90
2023-05-10T09:00:59.327Z,99.90
2023-05-10T09:03:26.468Z,99.90
2023-05-10T09:05:53.604Z,99.90
2023-05-10T09:08:21.740Z,99.90
2023-05-10T09:10:49.715Z,99.90
2023-05-10T09:13:18.439Z,99.90
2023-05-10T09:15:46.887Z,99.90
2023-05-10T09:18:15.145Z,99.90
2023-05-10T09:20:42.469Z,99.90
2023-05-10T09:23:10.360Z,99.90
2023-05-10T09:25:39.670Z,99.90
2023-05-10T09:28:10.812Z,99.90
2023-05-10T09:30:38.125Z,99.90
2023-05-10T09:33:05.221Z,99.90
2023-05-10T09:35:34.601Z,99.90
2023-05-10T09:38:05.311Z,99.90
2023-05-10T09:40:32.912Z,99.90
2023-05-10T09:43:02.997Z,99.90
2023-05-10T09:45:32.948Z,99.90
2023-05-10T09:48:03.147Z,99.90
2023-05-10T09:50:31.317Z,99.90
2023-05-10T09:53:00.933Z,99.90
2023-05-10T09:55:39.965Z,99.90
2023-05-10T09:58:11.492Z,99.90
2023-05-10T10:00:41.402Z,99.90
2023-05-10T10:03:15.358Z,99.90
2023-05-10T10:05:44.897Z,99.90
2023-05-10T10:08:13.455Z,99.60
2023-05-10T10:10:46.392Z,99.90
2023-05-10T10:13:14.396Z,99.90
2023-05-10T10:15:41.727Z,99.90
2023-05-10T10:18:13.465Z,99.90
2023-05-10T10:20:40.757Z,99.90
2023-05-10T10:23:08.966Z,99.90
2023-05-10T10:25:36.654Z,99.90
2023-05-10T10:28:19.790Z,99.90
2023-05-10T10:30:54.326Z,99.40
2023-05-10T10:33:52.257Z,99.80
2023-05-10T10:36:20.220Z,98.40
2023-05-10T10:38:50.238Z,99.90
2023-05-10T10:41:38.540Z,98.10
2023-05-10T10:44:44.998Z,96.80
2023-05-10T10:47:32.185Z,94.60
2023-05-10T10:49:59.260Z,99.00
2023-05-10T10:52:37.918Z,98.10
2023-05-10T10:55:16.213Z,96.80
2023-05-10T10:57:52.929Z,96.30
2023-05-10T11:00:23.152Z,97.50
2023-05-10T11:03:22.188Z,98.60
2023-05-10T11:05:49.710Z,95.50
2023-05-10T11:08:19.647Z,97.10
2023-05-10T11:11:00.023Z,96.40
2023-05-10T11:13:30.398Z,95.60
2023-05-10T11:15:58.407Z,96.40
2023-05-10T11:18:27.781Z,98.20
2023-05-10T11:20:59.054Z,97.30
2023-05-10T11:23:31.874Z,96.80
2023-05-10T11:25:59.958Z,96.40
2023-05-10T11:28:28.798Z,97.90
2023-05-10T11:30:56.079Z,96.80
2023-05-10T11:33:23.108Z,96.90
2023-05-10T11:35:50.214Z,96.20
2023-05-10T11:38:17.308Z,96.80
2023-05-10T11:40:44.855Z,96.20
2023-05-10T11:43:12.643Z,96.50
2023-05-10T11:45:41.259Z,96.70
2023-05-10T11:48:08.941Z,96.80
2023-05-10T11:50:36.184Z,93.90
2023-05-10T11:53:03.253Z,94.10
2023-05-10T11:55:31.516Z,96.20
2023-05-10T11:58:02.838Z,94.00
2023-05-10T12:00:30.901Z,93.90
2023-05-10T12:02:58.521Z,94.40
2023-05-10T12:05:26.452Z,95.10
2023-05-10T12:07:53.639Z,95.50
2023-05-10T12:10:27.887Z,95.60
2023-05-10T12:12:54.930Z,93.90
2023-05-10T12:15:26.078Z,94.60
2023-05-10T12:17:53.293Z,94.40
2023-05-10T12:20:22.404Z,94.70
2023-05-10T12:22:59.679Z,94.20
2023-05-10T12:25:32.176Z,93.60
2023-05-10T12:28:02.394Z,94.50
2023-05-10T12:30:31.643Z,94.60
2023-05-10T12:33:02.434Z,93.90
2023-05-10T12:35:33.448Z,92.50
2023-05-10T12:38:00.878Z,92.80
2023-05-10T12:40:27.849Z,94.30
2023-05-10T12:42:54.837Z,93.80
2023-05-10T12:45:21.905Z,93.90
2023-05-10T12:47:48.898Z,94.00
2023-05-10T12:50:16.187Z,93.20
2023-05-10T12:52:43.352Z,93.00
2023-05-10T12:55:10.388Z,93.30
2023-05-10T12:57:37.392Z,93.20
2023-05-10T13:00:06.333Z,93.40
2023-05-10T13:02:33.292Z,93.40
2023-05-10T13:05:00.343Z,93.40
2023-05-10T13:07:27.312Z,92.90
2023-05-10T13:09:54.194Z,93.50
2023-05-10T13:12:21.247Z,92.90
2023-05-10T13:14:48.195Z,92.60
2023-05-10T13:17:15.100Z,92.40
2023-05-10T13:19:42.115Z,92.80
2023-05-10T13:22:09.065Z,93.10
2023-05-10T13:24:36.052Z,93.40
2023-05-10T13:27:03.436Z,93.50
2023-05-10T13:29:30.520Z,93.30
2023-05-10T13:31:57.719Z,92.50
2023-05-10T13:34:25.359Z,93.40
2023-05-10T13:36:52.396Z,93.00
2023-05-10T13:39:19.453Z,93.40
2023-05-10T13:41:46.414Z,93.40
2023-05-10T13:44:16.235Z,93.30
2023-05-10T13:46:43.700Z,93.70
2023-05-10T13:49:11.883Z,94.40
2023-05-10T13:51:39.091Z,94.00
2023-05-10T13:54:06.141Z,93.90
2023-05-10T13:56:33.116Z,93.80
2023-05-10T13:59:00.555Z,94.20
2023-05-10T14:01:27.845Z,94.00
2023-05-10T14:03:54.958Z,94.00
2023-05-10T14:06:22.980Z,94.10
2023-05-10T14:08:50.029Z,94.00
2023-05-10T14:11:17.017Z,94.40
2023-05-10T14:13:44.004Z,94.50
2023-05-10T14:16:11.154Z,93.90
2023-05-10T14:18:38.249Z,94.10
2023-05-10T14:21:05.230Z,94.30
2023-05-10T14:23:32.303Z,94.10
2023-05-10T14:25:59.220Z,94.00
2023-05-10T14:28:26.304Z,93.80
2023-05-10T14:30:53.320Z,93.50
2023-05-10T14:33:20.506Z,93.40
2023-05-10T14:35:47.953Z,92.90
2023-05-10T14:38:15.783Z,92.70
2023-05-10T14:40:43.768Z,92.90
2023-05-10T14:43:10.841Z,92.60
2023-05-10T14:45:37.969Z,92.50
2023-05-10T14:48:06.172Z,92.90
2023-05-10T14:50:37.133Z,92.60
2023-05-10T14:53:04.992Z,92.30
2023-05-10T14:55:32.012Z,92.20
2023-05-10T14:57:59.603Z,92.10
2023-05-10T15:00:27.896Z,91.40
2023-05-10T15:02:55.387Z,91.00
2023-05-10T15:05:23.197Z,91.40
2023-05-10T15:07:50.614Z,91.30
2023-05-10T15:10:19.518Z,92.10
2023-05-10T15:12:46.518Z,90.40
2023-05-10T15:15:13.409Z,91.40
2023-05-10T15:17:40.332Z,91.60
2023-05-10T15:20:08.022Z,91.80
2023-05-10T15:22:34.957Z,91.50
2023-05-10T15:25:02.639Z,91.20
2023-05-10T15:27:29.617Z,91.50
2023-05-10T15:29:56.936Z,91.30
2023-05-10T15:32:23.936Z,91.60
2023-05-10T15:34:50.932Z,91.60
2023-05-10T15:37:17.939Z,91.30
2023-05-10T15:39:45.408Z,91.50
2023-05-10T15:42:13.103Z,91.20
2023-05-10T15:44:40.088Z,91.60
2023-05-10T15:47:07.171Z,91.30
2023-05-10T15:49:34.328Z,92.00
2023-05-10T15:52:01.333Z,91.90
2023-05-10T15:54:28.275Z,91.30
2023-05-10T15:56:55.669Z,91.70
2023-05-10T15:59:22.674Z,91.70
2023-05-10T16:01:50.410Z,91.40
2023-05-10T16:04:17.405Z,91.90
2023-05-10T16:06:44.370Z,91.90
2023-05-10T16:09:11.340Z,91.80
2023-05-10T16:11:38.377Z,91.60
2023-05-10T16:14:06.701Z,91.80
2023-05-10T16:16:35.094Z,91.60
2023-05-10T16:19:03.947Z,91.90
2023-05-10T16:21:34.489Z,92.00
2023-05-10T16:24:03.247Z,92.70
2023-05-10T16:26:30.330Z,92.20
2023-05-10T16:28:57.354Z,92.40
2023-05-10T16:31:24.767Z,92.50
2023-05-10T16:33:51.823Z,92.40
2023-05-10T16:36:18.779Z,92.20
2023-05-10T16:38:45.909Z,92.60
2023-05-10T16:41:12.913Z,92.80
2023-05-10T16:43:39.962Z,92.80
2023-05-10T16:46:13.272Z,92.70
2023-05-10T16:48:40.342Z,92.70
2023-05-10T16:51:07.992Z,92.90
2023-05-10T16:53:35.437Z,92.90
2023-05-10T16:56:02.601Z,92.90
2023-05-10T16:58:29.673Z,92.90
2023-05-10T17:00:56.759Z,92.70
2023-05-10T17:03:23.838Z,92.80
2023-05-10T17:05:50.902Z,93.00
2023-05-10T17:08:17.913Z,93.00
2023-05-10T17:10:45.025Z,93.10
2023-05-10T17:13:12.051Z,93.20
2023-05-10T17:15:39.729Z,93.30
2023-05-10T17:18:07.665Z,93.30
2023-05-10T17:20:35.095Z,93.50
2023-05-10T17:23:03.413Z,93.50
2023-05-10T17:25:30.483Z,93.50
2023-05-10T17:27:57.517Z,93.40
2023-05-10T17:30:27.785Z,93.50
2023-05-10T17:32:55.030Z,93.50
2023-05-10T17:35:22.234Z,93.60
2023-05-10T17:37:49.211Z,93.70
2023-05-10T17:40:16.509Z,93.60
2023-05-10T17:42:43.534Z,93.70
2023-05-10T17:45:10.992Z,93.80
2023-05-10T17:47:38.876Z,93.80
2023-05-10T17:50:06.750Z,93.90
2023-05-10T17:52:33.834Z,93.80
2023-05-10T17:55:01.068Z,93.80
2023-05-10T17:57:28.281Z,93.80
2023-05-10T17:59:56.143Z,94.30
2023-05-10T18:02:23.169Z,94.40
2023-05-10T18:04:50.298Z,94.10
2023-05-10T18:07:17.559Z,94.00
2023-05-10T18:09:44.677Z,94.00
2023-05-10T18:12:11.777Z,94.00
2023-05-10T18:14:41.095Z,94.00
2023-05-10T18:17:10.119Z,94.10
2023-05-10T18:19:37.281Z,94.20
2023-05-10T18:22:04.554Z,94.20
2023-05-10T18:27:02.332Z,94.30
2023-05-10T18:29:29.395Z,94.40
2023-05-10T18:31:56.513Z,94.50
2023-05-10T18:34:24.008Z,94.60
2023-05-10T18:36:52.209Z,94.60
2023-05-10T18:39:19.444Z,94.80
2023-05-10T18:41:46.469Z,94.90
2023-05-10T18:44:13.894Z,95.10
2023-05-10T18:46:42.521Z,95.20
2023-05-10T18:49:09.887Z,95.30
2023-05-10T18:51:36.887Z,95.40
2023-05-10T18:54:04.430Z,95.50
2023-05-10T18:56:31.572Z,95.50
2023-05-10T18:58:58.537Z,95.70
2023-05-10T19:01:28.349Z,95.80
2023-05-10T19:03:55.757Z,95.80
2023-05-10T19:06:23.517Z,95.90
2023-05-10T19:08:51.228Z,96.00
2023-05-10T19:11:18.983Z,96.20
2023-05-10T19:13:46.906Z,96.20
2023-05-10T19:16:17.485Z,96.40
2023-05-10T19:18:45.953Z,96.60
2023-05-10T19:21:13.965Z,96.60
2023-05-10T19:23:42.557Z,96.90
2023-05-10T19:26:11.565Z,96.90
2023-05-10T19:28:39.085Z,97.10
2023-05-10T19:31:08.323Z,97.20
2023-05-10T19:33:38.971Z,97.00
2023-05-10T19:36:07.850Z,97.20
2023-05-10T19:38:35.667Z,97.40
2023-05-10T19:41:03.926Z,97.40
2023-05-10T19:43:34.586Z,97.50
2023-05-10T19:46:03.233Z,97.80
2023-05-10T19:48:31.452Z,98.00
2023-05-10T19:51:07.840Z,98.00
2023-05-10T19:53:38.081Z,98.20
2023-05-10T19:56:06.715Z,98.00
2023-05-10T19:58:34.883Z,98.20
2023-05-10T20:01:02.027Z,98.20
2023-05-10T20:03:29.721Z,98.40
2023-05-10T20:05:57.210Z,98.50
2023-05-10T20:08:25.507Z,98.60
2023-05-10T20:10:52.679Z,99.00
2023-05-10T20:13:19.789Z,99.00
2023-05-10T20:15:47.788Z,99.10
2023-05-10T20:18:15.089Z,99.20
2023-05-10T20:20:42.646Z,99.30
2023-05-10T20:23:10.111Z,99.50
2023-05-10T20:25:37.772Z,99.60
2023-05-10T20:28:06.222Z,99.70
2023-05-10T20:30:33.877Z,99.70
2023-05-10T20:33:01.106Z,99.90
2023-05-10T20:35:28.113Z,99.90
2023-05-10T20:37:55.301Z,99.90
2023-05-10T20:40:22.492Z,99.90
2023-05-10T20:42:49.834Z,99.90
2023-05-10T20:45:16.914Z,99.90
2023-05-10T20:47:46.240Z,99.90
2023-05-10T20:50:13.370Z,99.90
2023-05-10T20:52:40.507Z,99.90
2023-05-10T20:55:08.064Z,99.90
2023-05-10T20:57:35.279Z,99.90
2023-05-10T21:00:02.527Z,99.90
2023-05-10T21:02:29.542Z,99.90
2023-05-10T21:04:57.976Z,99.90
2023-05-10T21:07:25.692Z,99.90
2023-05-10T21:09:52.839Z,99.90
2023-05-10T21:12:19.879Z,99.90
2023-05-10T21:14:47.989Z,99.90
2023-05-10T21:17:14.974Z,99.90
2023-05-10T21:19:41.951Z,99.90
2023-05-10T21:22:09.100Z,99.90
2023-05-10T21:24:36.127Z,99.90
2023-05-10T21:27:03.233Z,99.90
2023-05-10T21:29:30.221Z,99.90
2023-05-10T21:31:57.287Z,99.90
2023-05-10T21:34:24.303Z,99.90
2023-05-10T21:36:51.362Z,99.90
2023-05-10T21:39:18.365Z,99.90
2023-05-10T21:41:45.360Z,99.90
2023-05-10T21:44:12.498Z,99.90
2023-05-10T21:46:39.528Z,99.90
2023-05-10T21:49:06.564Z,99.90
2023-05-10T21:51:33.708Z,99.90
2023-05-10T21:54:00.692Z,99.90
2023-05-10T21:56:27.796Z,99.90
2023-05-10T21:58:54.981Z,99.90
2023-05-10T22:01:22.001Z,99.90
2023-05-10T22:03:49.105Z,99.90
2023-05-10T22:06:16.115Z,99.90
2023-05-10T22:08:43.099Z,99.90
2023-05-10T22:11:10.101Z,99.90
2023-05-10T22:13:37.068Z,99.90
2023-05-10T22:16:04.184Z,99.90
2023-05-10T22:18:31.203Z,99.90
2023-05-10T22:20:58.212Z,99.90
2023-05-10T22:23:25.385Z,99.90
2023-05-10T22:25:52.829Z,99.90
2023-05-10T22:28:20.538Z,99.90
2023-05-10T22:30:48.556Z,99.90
2023-05-10T22:33:15.635Z,99.90
2023-05-10T22:35:42.643Z,99.90
2023-05-10T22:38:09.637Z,99.90
2023-05-10T22:40:36.654Z,99.90
2023-05-10T22:43:03.851Z,99.90
2023-05-10T22:45:31.197Z,99.90
2023-05-10T22:47:58.231Z,99.90
2023-05-10T22:50:25.469Z,99.90
2023-05-10T22:52:52.475Z,99.90
2023-05-10T22:55:19.546Z,99.90
2023-05-10T22:57:46.602Z,99.90
2023-05-10T23:00:14.259Z,99.90
2023-05-10T23:02:41.565Z,99.90
2023-05-10T23:05:09.216Z,99.90
2023-05-10T23:07:36.310Z,99.90
2023-05-10T23:10:03.348Z,99.90
2023-05-10T23:12:31.542Z,99.90
2023-05-10T23:14:58.576Z,99.90
2023-05-10T23:17:25.932Z,99.90
2023-05-10T23:19:52.936Z,99.90
2023-05-10T23:22:19.954Z,99.90
2023-05-10T23:24:46.965Z,99.90
2023-05-10T23:27:14.794Z,99.90
2023-05-10T23:29:42.533Z,99.90
2023-05-10T23:32:09.693Z,99.90
2023-05-10T23:34:36.932Z,99.90
2023-05-10T23:37:03.952Z,99.90
2023-05-10T23:39:30.969Z,99.90
2023-05-10T23:41:58.030Z,99.90
2023-05-10T23:44:25.115Z,99.90
2023-05-10T23:46:52.198Z,99.90
2023-05-10T23:49:19.393Z,99.90
2023-05-10T23:51:46.504Z,99.90
2023-05-10T23:54:13.515Z,99.90
2023-05-10T23:56:40.573Z,99.90
2023-05-10T23:59:07.645Z,99.90
